sensor_id;sensor_type;location;lat;lon;timestamp;pressure;altitude;pressure_sealevel;temperature;humidity
66164;BME280;52962;51.088;3.096;2023-02-28T00:01:07;102860.44;;;0.58;100.00
66164;BME280;52962;51.088;3.096;2023-02-28T00:03:35;102858.47;;;0.55;100.00
66164;BME280;52962;51.088;3.096;2023-02-28T00:06:06;102856.50;;;0.53;100.00
66164;BME280;52962;51.088;3.096;2023-02-28T00:08:35;102853.00;;;0.52;100.00
66164;BME280;52962;51.088;3.096;2023-02-28T00:11:06;102857.41;;;0.53;100.00
66164;BME280;52962;51.088;3.096;2023-02-28T00:13:36;102854.81;;;0.53;100.00
66164;BME280;52962;51.088;3.096;2023-02-28T00:16:05;102854.06;;;0.54;100.00
66164;BME280;52962;51.088;3.096;2023-02-28T00:18:35;102843.81;;;0.56;100.00
66164;BME280;52962;51.088;3.096;2023-02-28T00:21:04;102851.75;;;0.57;100.00
66164;BME280;52962;51.088;3.096;2023-02-28T00:23:33;102853.28;;;0.55;100.00
66164;BME280;52962;51.088;3.096;2023-02-28T00:26:01;102865.47;;;0.56;100.00
66164;BME280;52962;51.088;3.096;2023-02-28T00:28:29;102867.16;;;0.56;100.00
66164;BME280;52962;51.088;3.096;2023-02-28T00:30:58;102859.22;;;0.54;100.00
66164;BME280;52962;51.088;3.096;2023-02-28T00:33:28;102860.50;;;0.49;100.00
66164;BME280;52962;51.088;3.096;2023-02-28T00:36:06;102865.19;;;0.53;100.00
66164;BME280;52962;51.088;3.096;2023-02-28T00:38:35;102865.53;;;0.48;100.00
66164;BME280;52962;51.088;3.096;2023-02-28T00:41:04;102863.72;;;0.47;100.00
66164;BME280;52962;51.088;3.096;2023-02-28T00:43:33;102861.53;;;0.51;100.00
66164;BME280;52962;51.088;3.096;2023-02-28T00:46:03;102865.69;;;0.49;100.00
66164;BME280;52962;51.088;3.096;2023-02-28T00:48:32;102862.19;;;0.49;100.00
66164;BME280;52962;51.088;3.096;2023-02-28T00:51:01;102857.91;;;0.49;100.00
66164;BME280;52962;51.088;3.096;2023-02-28T00:53:32;102859.44;;;0.47;100.00
66164;BME280;52962;51.088;3.096;2023-02-28T00:56:00;102860.97;;;0.45;100.00
66164;BME280;52962;51.088;3.096;2023-02-28T00:58:28;102857.31;;;0.43;100.00
66164;BME280;52962;51.088;3.096;2023-02-28T01:00:56;102856.56;;;0.44;100.00
66164;BME280;52962;51.088;3.096;2023-02-28T01:03:24;102854.88;;;0.45;100.00
66164;BME280;52962;51.088;3.096;2023-02-28T01:05:52;102859.63;;;0.40;100.00
66164;BME280;52962;51.088;3.096;2023-02-28T01:08:21;102856.75;;;0.37;100.00
66164;BME280;52962;51.088;3.096;2023-02-28T01:10:51;102861.66;;;0.34;100.00
66164;BME280;52962;51.088;3.096;2023-02-28T01:13:19;102859.84;;;0.33;100.00
66164;BME280;52962;51.088;3.096;2023-02-28T01:15:51;102864.72;;;0.30;100.00
66164;BME280;52962;51.088;3.096;2023-02-28T01:18:20;102870.41;;;0.26;100.00
66164;BME280;52962;51.088;3.096;2023-02-28T01:20:48;102872.97;;;0.26;100.00
66164;BME280;52962;51.088;3.096;2023-02-28T01:23:18;102873.91;;;0.26;100.00
66164;BME280;52962;51.088;3.096;2023-02-28T01:25:46;102869.63;;;0.27;100.00
66164;BME280;52962;51.088;3.096;2023-02-28T01:28:16;102872.38;;;0.28;100.00
66164;BME280;52962;51.088;3.096;2023-02-28T01:30:48;102871.53;;;0.38;100.00
66164;BME280;52962;51.088;3.096;2023-02-28T01:33:16;102869.88;;;0.39;100.00
66164;BME280;52962;51.088;3.096;2023-02-28T01:35:44;102870.50;;;0.36;100.00
66164;BME280;52962;51.088;3.096;2023-02-28T01:38:12;102872.03;;;0.34;100.00
66164;BME280;52962;51.088;3.096;2023-02-28T01:40:49;102863.06;;;0.30;100.00
66164;BME280;52962;51.088;3.096;2023-02-28T01:43:22;102856.81;;;0.28;100.00
66164;BME280;52962;51.088;3.096;2023-02-28T01:45:52;102857.72;;;0.29;100.00
66164;BME280;52962;51.088;3.096;2023-02-28T01:48:24;102854.06;;;0.27;100.00
66164;BME280;52962;51.088;3.096;2023-02-28T01:50:55;102850.44;;;0.25;100.00
66164;BME280;52962;51.088;3.096;2023-02-28T01:53:30;102850.56;;;0.26;100.00
66164;BME280;52962;51.088;3.096;2023-02-28T01:55:59;102846.94;;;0.24;100.00
66164;BME280;52962;51.088;3.096;2023-02-28T01:58:29;102848.75;;;0.25;100.00
66164;BME280;52962;51.088;3.096;2023-02-28T02:00:58;102847.56;;;0.22;100.00
66164;BME280;52962;51.088;3.096;2023-02-28T02:03:26;102844.69;;;0.19;100.00
66164;BME280;52962;51.088;3.096;2023-02-28T02:05:54;102842.72;;;0.16;100.00
66164;BME280;52962;51.088;3.096;2023-02-28T02:08:24;102844.09;;;0.13;100.00
66164;BME280;52962;51.088;3.096;2023-02-28T02:10:54;102843.19;;;0.12;100.00
66164;BME280;52962;51.088;3.096;2023-02-28T02:13:41;102845.50;;;0.09;100.00
66164;BME280;52962;51.088;3.096;2023-02-28T02:16:22;102845.06;;;0.05;100.00
66164;BME280;52962;51.088;3.096;2023-02-28T02:18:53;102849.03;;;0.01;100.00
66164;BME280;52962;51.088;3.096;2023-02-28T02:21:48;102848.78;;;-0.02;100.00
66164;BME280;52962;51.088;3.096;2023-02-28T02:34:29;102846.41;;;-0.18;100.00
66164;BME280;52962;51.088;3.096;2023-02-28T02:37:11;102848.41;;;-0.24;100.00
66164;BME280;52962;51.088;3.096;2023-02-28T02:39:47;102843.44;;;-0.31;100.00
66164;BME280;52962;51.088;3.096;2023-02-28T02:42:22;102840.09;;;-0.39;100.00
66164;BME280;52962;51.088;3.096;2023-02-28T02:44:58;102834.31;;;-0.36;100.00
66164;BME280;52962;51.088;3.096;2023-02-28T02:47:30;102850.13;;;-0.33;100.00
66164;BME280;52962;51.088;3.096;2023-02-28T02:50:05;102841.00;;;-0.38;100.00
66164;BME280;52962;51.088;3.096;2023-02-28T02:52:42;102843.16;;;-0.43;100.00
66164;BME280;52962;51.088;3.096;2023-02-28T02:55:13;102853.19;;;-0.37;100.00
66164;BME280;52962;51.088;3.096;2023-02-28T02:57:45;102855.47;;;-0.31;100.00
66164;BME280;52962;51.088;3.096;2023-02-28T03:00:18;102849.47;;;-0.22;100.00
66164;BME280;52962;51.088;3.096;2023-02-28T03:02:49;102849.59;;;-0.12;100.00
66164;BME280;52962;51.088;3.096;2023-02-28T03:05:25;102848.41;;;0.04;100.00
66164;BME280;52962;51.088;3.096;2023-02-28T03:07:54;102849.09;;;0.20;100.00
66164;BME280;52962;51.088;3.096;2023-02-28T03:10:35;102842.75;;;0.35;100.00
66164;BME280;52962;51.088;3.096;2023-02-28T03:13:44;102842.34;;;0.49;100.00
66164;BME280;52962;51.088;3.096;2023-02-28T03:16:28;102838.00;;;0.58;100.00
66164;BME280;52962;51.088;3.096;2023-02-28T03:19:12;102838.44;;;0.63;100.00
66164;BME280;52962;51.088;3.096;2023-02-28T03:21:56;102834.28;;;0.65;100.00
66164;BME280;52962;51.088;3.096;2023-02-28T03:24:34;102838.22;;;0.70;100.00
66164;BME280;52962;51.088;3.096;2023-02-28T03:27:15;102829.59;;;0.80;100.00
66164;BME280;52962;51.088;3.096;2023-02-28T03:29:48;102824.97;;;0.86;100.00
66164;BME280;52962;51.088;3.096;2023-02-28T03:32:24;102827.97;;;0.90;100.00
66164;BME280;52962;51.088;3.096;2023-02-28T03:34:58;102822.44;;;0.96;100.00
66164;BME280;52962;51.088;3.096;2023-02-28T03:37:34;102824.81;;;1.03;100.00
66164;BME280;52962;51.088;3.096;2023-02-28T03:40:06;102828.41;;;1.05;100.00
66164;BME280;52962;51.088;3.096;2023-02-28T03:42:36;102839.06;;;1.08;100.00
66164;BME280;52962;51.088;3.096;2023-02-28T03:45:10;102833.25;;;1.11;100.00
66164;BME280;52962;51.088;3.096;2023-02-28T03:47:41;102831.84;;;1.14;100.00
66164;BME280;52962;51.088;3.096;2023-02-28T03:50:15;102834.72;;;1.17;100.00
66164;BME280;52962;51.088;3.096;2023-02-28T03:52:51;102840.19;;;1.20;100.00
66164;BME280;52962;51.088;3.096;2023-02-28T03:55:21;102841.34;;;1.24;100.00
66164;BME280;52962;51.088;3.096;2023-02-28T03:57:56;102845.00;;;1.26;100.00
66164;BME280;52962;51.088;3.096;2023-02-28T04:00:28;102844.38;;;1.28;100.00
66164;BME280;52962;51.088;3.096;2023-02-28T04:03:00;102841.28;;;1.33;100.00
66164;BME280;52962;51.088;3.096;2023-02-28T04:05:29;102851.03;;;1.35;100.00
66164;BME280;52962;51.088;3.096;2023-02-28T04:08:05;102848.69;;;1.38;100.00
66164;BME280;52962;51.088;3.096;2023-02-28T04:10:34;102846.25;;;1.40;100.00
66164;BME280;52962;51.088;3.096;2023-02-28T04:13:02;102840.53;;;1.44;100.00
66164;BME280;52962;51.088;3.096;2023-02-28T04:15:30;102838.22;;;1.47;100.00
66164;BME280;52962;51.088;3.096;2023-02-28T04:17:58;102839.00;;;1.46;100.00
66164;BME280;52962;51.088;3.096;2023-02-28T04:20:26;102840.31;;;1.51;100.00
66164;BME280;52962;51.088;3.096;2023-02-28T04:22:54;102837.97;;;1.54;100.00
66164;BME280;52962;51.088;3.096;2023-02-28T04:25:24;102835.53;;;1.55;100.00
66164;BME280;52962;51.088;3.096;2023-02-28T04:27:52;102842.69;;;1.58;100.00
66164;BME280;52962;51.088;3.096;2023-02-28T04:30:20;102850.72;;;1.61;100.00
66164;BME280;52962;51.088;3.096;2023-02-28T04:32:48;102849.97;;;1.62;100.00
66164;BME280;52962;51.088;3.096;2023-02-28T04:35:16;102849.31;;;1.64;100.00
66164;BME280;52962;51.088;3.096;2023-02-28T04:37:44;102856.34;;;1.66;100.00
66164;BME280;52962;51.088;3.096;2023-02-28T04:40:12;102851.13;;;1.66;100.00
66164;BME280;52962;51.088;3.096;2023-02-28T04:42:42;102852.06;;;1.66;100.00
66164;BME280;52962;51.088;3.096;2023-02-28T04:45:10;102853.09;;;1.68;100.00
66164;BME280;52962;51.088;3.096;2023-02-28T04:47:38;102854.00;;;1.69;100.00
66164;BME280;52962;51.088;3.096;2023-02-28T04:50:07;102860.13;;;1.69;100.00
66164;BME280;52962;51.088;3.096;2023-02-28T04:52:35;102863.13;;;1.74;100.00
66164;BME280;52962;51.088;3.096;2023-02-28T04:55:04;102859.88;;;1.76;100.00
66164;BME280;52962;51.088;3.096;2023-02-28T04:57:33;102853.13;;;1.78;100.00
66164;BME280;52962;51.088;3.096;2023-02-28T05:00:03;102852.34;;;1.79;100.00
66164;BME280;52962;51.088;3.096;2023-02-28T05:02:38;102857.53;;;1.79;100.00
66164;BME280;52962;51.088;3.096;2023-02-28T05:05:06;102857.53;;;1.79;100.00
66164;BME280;52962;51.088;3.096;2023-02-28T05:07:34;102862.75;;;1.79;100.00
66164;BME280;52962;51.088;3.096;2023-02-28T05:10:03;102861.06;;;1.80;100.00
66164;BME280;52962;51.088;3.096;2023-02-28T05:12:32;102869.75;;;1.80;100.00
66164;BME280;52962;51.088;3.096;2023-02-28T05:15:00;102863.00;;;1.82;100.00
66164;BME280;52962;51.088;3.096;2023-02-28T05:17:30;102862.22;;;1.83;100.00
66164;BME280;52962;51.088;3.096;2023-02-28T05:19:58;102856.25;;;1.84;100.00
66164;BME280;52962;51.088;3.096;2023-02-28T05:22:41;102852.88;;;1.85;100.00
66164;BME280;52962;51.088;3.096;2023-02-28T05:25:09;102850.28;;;1.85;100.00
66164;BME280;52962;51.088;3.096;2023-02-28T05:27:39;102856.41;;;1.86;100.00
66164;BME280;52962;51.088;3.096;2023-02-28T05:30:08;102856.41;;;1.86;100.00
66164;BME280;52962;51.088;3.096;2023-02-28T05:32:41;102858.09;;;1.85;100.00
66164;BME280;52962;51.088;3.096;2023-02-28T05:35:11;102866.00;;;1.87;100.00
66164;BME280;52962;51.088;3.096;2023-02-28T05:37:39;102869.38;;;1.86;100.00
66164;BME280;52962;51.088;3.096;2023-02-28T05:40:08;102853.94;;;1.87;100.00
66164;BME280;52962;51.088;3.096;2023-02-28T05:42:38;102867.19;;;1.90;100.00
66164;BME280;52962;51.088;3.096;2023-02-28T05:45:07;102871.63;;;1.91;100.00
66164;BME280;52962;51.088;3.096;2023-02-28T05:47:35;102870.84;;;1.92;100.00
66164;BME280;52962;51.088;3.096;2023-02-28T05:50:06;102869.91;;;1.92;100.00
66164;BME280;52962;51.088;3.096;2023-02-28T05:52:36;102872.66;;;1.93;100.00
66164;BME280;52962;51.088;3.096;2023-02-28T05:55:05;102879.94;;;1.98;100.00
66164;BME280;52962;51.088;3.096;2023-02-28T05:57:33;102871.09;;;1.95;100.00
66164;BME280;52962;51.088;3.096;2023-02-28T06:00:02;102876.69;;;2.00;100.00
66164;BME280;52962;51.088;3.096;2023-02-28T06:02:38;102877.88;;;2.04;100.00
66164;BME280;52962;51.088;3.096;2023-02-28T06:05:13;102872.69;;;2.04;100.00
66164;BME280;52962;51.088;3.096;2023-02-28T06:07:42;102871.91;;;2.05;100.00
66164;BME280;52962;51.088;3.096;2023-02-28T06:10:11;102868.53;;;2.06;100.00
66164;BME280;52962;51.088;3.096;2023-02-28T06:12:40;102867.75;;;2.07;100.00
66164;BME280;52962;51.088;3.096;2023-02-28T06:15:11;102868.53;;;2.06;100.00
66164;BME280;52962;51.088;3.096;2023-02-28T06:17:40;102867.84;;;2.08;100.00
66164;BME280;52962;51.088;3.096;2023-02-28T06:20:11;102872.41;;;2.11;100.00
66164;BME280;52962;51.088;3.096;2023-02-28T06:22:39;102876.81;;;2.12;100.00
66164;BME280;52962;51.088;3.096;2023-02-28T06:25:09;102882.16;;;2.13;100.00
66164;BME280;52962;51.088;3.096;2023-02-28T06:27:38;102877.84;;;2.14;100.00
66164;BME280;52962;51.088;3.096;2023-02-28T06:30:07;102885.00;;;2.16;100.00
66164;BME280;52962;51.088;3.096;2023-02-28T06:32:35;102884.25;;;2.17;100.00
66164;BME280;52962;51.088;3.096;2023-02-28T06:35:04;102888.66;;;2.18;100.00
66164;BME280;52962;51.088;3.096;2023-02-28T06:37:33;102883.47;;;2.18;100.00
66164;BME280;52962;51.088;3.096;2023-02-28T06:40:02;102889.56;;;2.19;100.00
66164;BME280;52962;51.088;3.096;2023-02-28T06:42:32;102881.78;;;2.19;100.00
66164;BME280;52962;51.088;3.096;2023-02-28T06:45:00;102877.63;;;2.21;100.00
66164;BME280;52962;51.088;3.096;2023-02-28T06:47:30;102884.75;;;2.23;100.00
66164;BME280;52962;51.088;3.096;2023-02-28T06:49:58;102887.50;;;2.25;100.00
66164;BME280;52962;51.088;3.096;2023-02-28T06:52:28;102884.13;;;2.26;100.00
66164;BME280;52962;51.088;3.096;2023-02-28T06:54:57;102891.28;;;2.28;100.00
66164;BME280;52962;51.088;3.096;2023-02-28T06:57:28;102885.94;;;2.27;100.00
66164;BME280;52962;51.088;3.096;2023-02-28T06:59:58;102899.97;;;2.29;100.00
66164;BME280;52962;51.088;3.096;2023-02-28T07:02:26;102900.91;;;2.29;100.00
66164;BME280;52962;51.088;3.096;2023-02-28T07:04:54;102892.31;;;2.30;100.00
66164;BME280;52962;51.088;3.096;2023-02-28T07:07:23;102891.66;;;2.33;100.00
66164;BME280;52962;51.088;3.096;2023-02-28T07:09:51;102896.09;;;2.34;100.00
66164;BME280;52962;51.088;3.096;2023-02-28T07:12:20;102901.41;;;2.36;100.00
66164;BME280;52962;51.088;3.096;2023-02-28T07:14:48;102905.19;;;2.39;100.00
66164;BME280;52962;51.088;3.096;2023-02-28T07:17:16;102905.19;;;2.39;100.00
66164;BME280;52962;51.088;3.096;2023-02-28T07:19:45;102893.09;;;2.40;100.00
66164;BME280;52962;51.088;3.096;2023-02-28T07:22:13;102890.63;;;2.41;100.00
66164;BME280;52962;51.088;3.096;2023-02-28T07:24:41;102900.13;;;2.41;100.00
66164;BME280;52962;51.088;3.096;2023-02-28T07:27:10;102902.59;;;2.39;100.00
66164;BME280;52962;51.088;3.096;2023-02-28T07:29:39;102905.97;;;2.38;100.00
66164;BME280;52962;51.088;3.096;2023-02-28T07:32:08;102907.94;;;2.41;100.00
66164;BME280;52962;51.088;3.096;2023-02-28T07:34:36;102903.63;;;2.41;100.00
66164;BME280;52962;51.088;3.096;2023-02-28T07:37:04;102906.25;;;2.41;100.00
66164;BME280;52962;51.088;3.096;2023-02-28T07:39:32;102903.78;;;2.43;100.00
66164;BME280;52962;51.088;3.096;2023-02-28T07:42:00;102892.84;;;2.47;100.00
66164;BME280;52962;51.088;3.096;2023-02-28T07:44:32;102893.91;;;2.49;100.00
66164;BME280;52962;51.088;3.096;2023-02-28T07:47:02;102891.28;;;2.49;100.00
66164;BME280;52962;51.088;3.096;2023-02-28T07:49:30;102897.28;;;2.48;100.00
66164;BME280;52962;51.088;3.096;2023-02-28T07:51:58;102898.97;;;2.47;100.00
66164;BME280;52962;51.088;3.096;2023-02-28T07:54:27;102896.38;;;2.47;100.00
66164;BME280;52962;51.088;3.096;2023-02-28T07:56:55;102907.94;;;2.51;100.00
66164;BME280;52962;51.088;3.096;2023-02-28T07:59:23;102909.09;;;2.54;100.00
66164;BME280;52962;51.088;3.096;2023-02-28T08:01:51;102907.56;;;2.56;100.00
66164;BME280;52962;51.088;3.096;2023-02-28T08:04:20;102901.56;;;2.57;100.00
66164;BME280;52962;51.088;3.096;2023-02-28T08:06:49;102902.63;;;2.59;100.00
66164;BME280;52962;51.088;3.096;2023-02-28T08:09:18;102896.38;;;2.57;100.00
66164;BME280;52962;51.088;3.096;2023-02-28T08:11:46;102896.25;;;2.56;100.00
66164;BME280;52962;51.088;3.096;2023-02-28T08:14:14;102907.28;;;2.53;100.00
66164;BME280;52962;51.088;3.096;2023-02-28T08:16:42;102902.09;;;2.53;100.00
66164;BME280;52962;51.088;3.096;2023-02-28T08:19:10;102895.06;;;2.52;100.00
66164;BME280;52962;51.088;3.096;2023-02-28T08:21:40;102902.88;;;2.52;100.00
66164;BME280;52962;51.088;3.096;2023-02-28T08:24:08;102909.75;;;2.52;100.00
66164;BME280;52962;51.088;3.096;2023-02-28T08:26:36;102909.50;;;2.49;100.00
66164;BME280;52962;51.088;3.096;2023-02-28T08:29:04;102910.94;;;2.45;100.00
66164;BME280;52962;51.088;3.096;2023-02-28T08:31:32;102911.69;;;2.44;100.00
66164;BME280;52962;51.088;3.096;2023-02-28T08:34:05;102908.72;;;2.40;100.00
66164;BME280;52962;51.088;3.096;2023-02-28T08:36:33;102910.91;;;2.35;100.00
66164;BME280;52962;51.088;3.096;2023-02-28T08:39:03;102908.19;;;2.34;100.00
66164;BME280;52962;51.088;3.096;2023-02-28T08:41:32;102921.03;;;2.32;100.00
66164;BME280;52962;51.088;3.096;2023-02-28T08:44:00;102917.00;;;2.25;100.00
66164;BME280;52962;51.088;3.096;2023-02-28T08:46:28;102918.69;;;2.25;100.00
66164;BME280;52962;51.088;3.096;2023-02-28T08:48:57;102914.13;;;2.22;100.00
66164;BME280;52962;51.088;3.096;2023-02-28T08:51:27;102911.91;;;2.17;100.00
66164;BME280;52962;51.088;3.096;2023-02-28T08:53:58;102915.03;;;2.13;100.00
66164;BME280;52962;51.088;3.096;2023-02-28T08:56:29;102914.75;;;2.10;100.00
66164;BME280;52962;51.088;3.096;2023-02-28T08:58:57;102907.75;;;2.09;100.00
66164;BME280;52962;51.088;3.096;2023-02-28T09:01:27;102914.63;;;2.08;100.00
66164;BME280;52962;51.088;3.096;2023-02-28T09:03:57;102915.69;;;2.10;100.00
66164;BME280;52962;51.088;3.096;2023-02-28T09:06:26;102914.91;;;2.11;100.00
66164;BME280;52962;51.088;3.096;2023-02-28T09:08:56;102914.63;;;2.08;100.00
66164;BME280;52962;51.088;3.096;2023-02-28T09:11:28;102917.91;;;2.06;100.00
66164;BME280;52962;51.088;3.096;2023-02-28T09:13:57;102915.31;;;2.06;100.00
66164;BME280;52962;51.088;3.096;2023-02-28T09:16:26;102916.84;;;2.04;100.00
66164;BME280;52962;51.088;3.096;2023-02-28T09:18:54;102918.53;;;2.03;100.00
66164;BME280;52962;51.088;3.096;2023-02-28T09:21:22;102917.78;;;2.04;100.00
66164;BME280;52962;51.088;3.096;2023-02-28T09:23:50;102907.75;;;2.09;100.00
66164;BME280;52962;51.088;3.096;2023-02-28T09:26:20;102916.06;;;2.15;100.00
66164;BME280;52962;51.088;3.096;2023-02-28T09:28:53;102916.34;;;2.18;100.00
66164;BME280;52962;51.088;3.096;2023-02-28T09:31:23;102906.59;;;2.15;100.00
66164;BME280;52962;51.088;3.096;2023-02-28T09:33:53;102904.63;;;2.13;100.00
66164;BME280;52962;51.088;3.096;2023-02-28T09:36:23;102904.75;;;2.14;100.00
66164;BME280;52962;51.088;3.096;2023-02-28T09:39:07;102905.28;;;2.10;100.00
66164;BME280;52962;51.088;3.096;2023-02-28T09:41:38;102910.75;;;2.13;100.00
66164;BME280;52962;51.088;3.096;2023-02-28T09:44:19;102908.53;;;2.18;100.00
66164;BME280;52962;51.088;3.096;2023-02-28T09:46:52;102902.56;;;2.19;100.00
66164;BME280;52962;51.088;3.096;2023-02-28T09:49:24;102913.88;;;2.19;100.00
66164;BME280;52962;51.088;3.096;2023-02-28T09:51:59;102905.81;;;2.26;100.00
66164;BME280;52962;51.088;3.096;2023-02-28T09:54:31;102901.53;;;2.27;100.00
66164;BME280;52962;51.088;3.096;2023-02-28T09:57:02;102913.66;;;2.37;100.00
66164;BME280;52962;51.088;3.096;2023-02-28T09:59:41;102906.75;;;2.47;100.00
66164;BME280;52962;51.088;3.096;2023-02-28T10:02:21;102907.28;;;2.53;100.00
66164;BME280;52962;51.088;3.096;2023-02-28T10:04:54;102905.22;;;2.59;100.00
66164;BME280;52962;51.088;3.096;2023-02-28T10:07:48;102894.53;;;2.67;100.00
66164;BME280;52962;51.088;3.096;2023-02-28T10:10:25;102907.16;;;2.82;100.00
66164;BME280;52962;51.088;3.096;2023-02-28T10:12:57;102897.66;;;2.93;100.00
66164;BME280;52962;51.088;3.096;2023-02-28T10:15:30;102901.81;;;3.01;100.00
66164;BME280;52962;51.088;3.096;2023-02-28T10:18:03;102899.28;;;3.13;100.00
66164;BME280;52962;51.088;3.096;2023-02-28T10:20:53;102898.34;;;3.22;100.00
66164;BME280;52962;51.088;3.096;2023-02-28T10:23:26;102893.13;;;3.22;100.00
66164;BME280;52962;51.088;3.096;2023-02-28T10:26:00;102882.72;;;3.22;100.00
66164;BME280;52962;51.088;3.096;2023-02-28T10:28:29;102894.19;;;3.24;100.00
66164;BME280;52962;51.088;3.096;2023-02-28T10:30:59;102887.16;;;3.23;100.00
66164;BME280;52962;51.088;3.096;2023-02-28T10:33:29;102878.31;;;3.21;100.00
66164;BME280;52962;51.088;3.096;2023-02-28T10:35:58;102879.63;;;3.16;100.00
66164;BME280;52962;51.088;3.096;2023-02-28T10:38:27;102896.69;;;3.13;100.00
66164;BME280;52962;51.088;3.096;2023-02-28T10:41:14;102890.47;;;3.11;100.00
66164;BME280;52962;51.088;3.096;2023-02-28T10:43:44;102883.84;;;3.04;100.00
66164;BME280;52962;51.088;3.096;2023-02-28T10:46:16;102875.50;;;3.08;100.00
66164;BME280;52962;51.088;3.096;2023-02-28T10:49:02;102874.59;;;3.08;100.00
66164;BME280;52962;51.088;3.096;2023-02-28T10:51:37;102881.25;;;3.04;100.00
66164;BME280;52962;51.088;3.096;2023-02-28T10:54:14;102868.22;;;3.04;100.00
66164;BME280;52962;51.088;3.096;2023-02-28T10:56:43;102873.94;;;3.10;100.00
66164;BME280;52962;51.088;3.096;2023-02-28T10:59:28;102868.03;;;3.13;100.00
66164;BME280;52962;51.088;3.096;2023-02-28T11:01:58;102865.56;;;3.14;100.00
66164;BME280;52962;51.088;3.096;2023-02-28T11:04:35;102865.34;;;3.11;100.00
66164;BME280;52962;51.088;3.096;2023-02-28T11:07:16;102856.97;;;3.15;100.00
66164;BME280;52962;51.088;3.096;2023-02-28T11:09:50;102860.19;;;3.23;100.00
66164;BME280;52962;51.088;3.096;2023-02-28T11:12:26;102856.91;;;3.36;100.00
66164;BME280;52962;51.088;3.096;2023-02-28T11:14:59;102857.28;;;3.40;100.00
66164;BME280;52962;51.088;3.096;2023-02-28T11:17:31;102853.25;;;3.34;100.00
66164;BME280;52962;51.088;3.096;2023-02-28T11:20:02;102850.75;;;3.45;100.00
66164;BME280;52962;51.088;3.096;2023-02-28T11:22:38;102838.63;;;3.46;100.00
66164;BME280;52962;51.088;3.096;2023-02-28T11:25:09;102836.75;;;3.55;100.00
66164;BME280;52962;51.088;3.096;2023-02-28T11:27:47;102843.50;;;3.63;100.00
66164;BME280;52962;51.088;3.096;2023-02-28T11:30:28;102827.88;;;3.63;100.00
66164;BME280;52962;51.088;3.096;2023-02-28T11:32:58;102831.75;;;3.68;100.00
66164;BME280;52962;51.088;3.096;2023-02-28T11:35:29;102833.63;;;3.81;100.00
66164;BME280;52962;51.088;3.096;2023-02-28T11:37:58;102823.50;;;3.96;100.00
66164;BME280;52962;51.088;3.096;2023-02-28T11:40:31;102815.63;;;4.06;100.00
66164;BME280;52962;51.088;3.096;2023-02-28T11:43:11;102814.50;;;4.14;100.00
66164;BME280;52962;51.088;3.096;2023-02-28T11:45:58;102813.38;;;4.22;100.00
66164;BME280;52962;51.088;3.096;2023-02-28T11:48:35;102801.59;;;4.27;100.00
66164;BME280;52962;51.088;3.096;2023-02-28T11:51:14;102797.28;;;4.27;100.00
66164;BME280;52962;51.088;3.096;2023-02-28T11:53:52;102803.00;;;4.45;100.00
66164;BME280;52962;51.088;3.096;2023-02-28T11:56:26;102793.94;;;4.52;100.00
66164;BME280;52962;51.088;3.096;2023-02-28T11:59:09;102793.03;;;4.51;100.00
66164;BME280;52962;51.088;3.096;2023-02-28T12:02:00;102779.06;;;4.51;100.00
66164;BME280;52962;51.088;3.096;2023-02-28T12:04:40;102790.56;;;4.65;100.00
66164;BME280;52962;51.088;3.096;2023-02-28T12:07:16;102789.31;;;4.71;100.00
66164;BME280;52962;51.088;3.096;2023-02-28T12:09:55;102784.31;;;4.86;100.00
66164;BME280;52962;51.088;3.096;2023-02-28T12:12:37;102786.94;;;5.09;100.00
66164;BME280;52962;51.088;3.096;2023-02-28T12:15:20;102783.13;;;5.29;100.00
66164;BME280;52962;51.088;3.096;2023-02-28T12:18:03;102777.75;;;5.51;100.00
66164;BME280;52962;51.088;3.096;2023-02-28T12:20:42;102772.00;;;5.68;100.00
66164;BME280;52962;51.088;3.096;2023-02-28T12:23:52;102767.63;;;5.80;100.00
66164;BME280;52962;51.088;3.096;2023-02-28T12:26:31;102759.13;;;6.08;100.00
66164;BME280;52962;51.088;3.096;2023-02-28T12:29:10;102755.50;;;6.06;100.00
66164;BME280;52962;51.088;3.096;2023-02-28T12:31:44;102748.50;;;5.93;100.00
66164;BME280;52962;51.088;3.096;2023-02-28T12:34:18;102743.25;;;5.68;100.00
66164;BME280;52962;51.088;3.096;2023-02-28T12:36:52;102746.94;;;5.47;100.00
66164;BME280;52962;51.088;3.096;2023-02-28T12:39:25;102744.84;;;5.30;100.00
66164;BME280;52962;51.088;3.096;2023-02-28T12:41:59;102738.97;;;5.20;100.00
66164;BME280;52962;51.088;3.096;2023-02-28T12:44:33;102734.91;;;5.12;100.00
66164;BME280;52962;51.088;3.096;2023-02-28T12:47:04;102735.03;;;5.14;100.00
66164;BME280;52962;51.088;3.096;2023-02-28T12:49:36;102737.53;;;5.12;100.00
66164;BME280;52962;51.088;3.096;2023-02-28T12:52:08;102718.34;;;5.00;100.00
66164;BME280;52962;51.088;3.096;2023-02-28T12:54:44;102724.81;;;5.05;100.00
66164;BME280;52962;51.088;3.096;2023-02-28T12:57:19;102710.63;;;5.13;100.00
66164;BME280;52962;51.088;3.096;2023-02-28T12:59:52;102700.59;;;5.19;100.00
66164;BME280;52962;51.088;3.096;2023-02-28T13:02:39;102703.22;;;5.19;100.00
66164;BME280;52962;51.088;3.096;2023-02-28T13:05:29;102693.75;;;5.21;100.00
66164;BME280;52962;51.088;3.096;2023-02-28T13:11:26;102693.06;;;5.24;100.00
66164;BME280;52962;51.088;3.096;2023-02-28T13:13:58;102685.09;;;5.34;100.00
66164;BME280;52962;51.088;3.096;2023-02-28T13:16:27;102677.81;;;5.30;100.00
66164;BME280;52962;51.088;3.096;2023-02-28T13:19:07;102676.91;;;5.30;100.00
66164;BME280;52962;51.088;3.096;2023-02-28T13:21:41;102666.00;;;5.35;100.00
66164;BME280;52962;51.088;3.096;2023-02-28T13:24:42;102662.63;;;5.49;100.00
66164;BME280;52962;51.088;3.096;2023-02-28T13:27:24;102658.75;;;5.56;100.00
66164;BME280;52962;51.088;3.096;2023-02-28T13:29:59;102652.03;;;5.59;100.00